sensor_id;sensor_type;location;lat;lon;timestamp;temperature;humidity
26408;DHT22;14583;43.604;1.364;2022-10-16T00:01:11;18.90;99.90
26408;DHT22;14583;43.604;1.364;2022-10-16T00:03:38;18.90;99.90
26408;DHT22;14583;43.604;1.364;2022-10-16T00:06:04;18.90;99.90
26408;DHT22;14583;43.604;1.364;2022-10-16T00:08:31;18.90;99.90
26408;DHT22;14583;43.604;1.364;2022-10-16T00:11:49;19.00;99.90
26408;DHT22;14583;43.604;1.364;2022-10-16T00:13:52;19.00;99.90
26408;DHT22;14583;43.604;1.364;2022-10-16T00:16:20;19.00;99.90
26408;DHT22;14583;43.604;1.364;2022-10-16T00:18:45;19.00;99.90
26408;DHT22;14583;43.604;1.364;2022-10-16T00:21:17;19.00;99.90
26408;DHT22;14583;43.604;1.364;2022-10-16T00:23:43;18.90;99.90
26408;DHT22;14583;43.604;1.364;2022-10-16T00:26:12;19.00;99.90
26408;DHT22;14583;43.604;1.364;2022-10-16T00:28:39;19.00;99.90
26408;DHT22;14583;43.604;1.364;2022-10-16T00:31:06;19.10;99.90
26408;DHT22;14583;43.604;1.364;2022-10-16T00:33:32;19.10;99.90
26408;DHT22;14583;43.604;1.364;2022-10-16T00:35:59;19.00;99.90
26408;DHT22;14583;43.604;1.364;2022-10-16T00:38:25;19.00;99.90
26408;DHT22;14583;43.604;1.364;2022-10-16T00:40:50;19.10;99.90
26408;DHT22;14583;43.604;1.364;2022-10-16T00:43:37;19.10;99.90
26408;DHT22;14583;43.604;1.364;2022-10-16T00:46:11;19.10;99.90
26408;DHT22;14583;43.604;1.364;2022-10-16T00:48:37;19.20;99.90
26408;DHT22;14583;43.604;1.364;2022-10-16T00:51:04;19.20;99.90
26408;DHT22;14583;43.604;1.364;2022-10-16T00:53:31;19.20;99.90
26408;DHT22;14583;43.604;1.364;2022-10-16T00:55:56;19.20;99.90
26408;DHT22;14583;43.604;1.364;2022-10-16T00:58:22;19.20;99.90
26408;DHT22;14583;43.604;1.364;2022-10-16T01:00:48;19.20;99.90
26408;DHT22;14583;43.604;1.364;2022-10-16T01:03:32;19.20;99.90
26408;DHT22;14583;43.604;1.364;2022-10-16T01:09:41;19.10;99.90
26408;DHT22;14583;43.604;1.364;2022-10-16T01:14:55;19.20;99.90
26408;DHT22;14583;43.604;1.364;2022-10-16T01:20:28;19.20;99.90
26408;DHT22;14583;43.604;1.364;2022-10-16T01:25:49;19.20;99.90
26408;DHT22;14583;43.604;1.364;2022-10-16T01:28:22;19.20;99.90
26408;DHT22;14583;43.604;1.364;2022-10-16T01:30:53;19.20;99.90
26408;DHT22;14583;43.604;1.364;2022-10-16T01:33:27;19.10;99.90
26408;DHT22;14583;43.604;1.364;2022-10-16T01:35:58;19.20;99.90
26408;DHT22;14583;43.604;1.364;2022-10-16T01:38:31;19.20;99.90
26408;DHT22;14583;43.604;1.364;2022-10-16T01:41:14;19.20;99.90
26408;DHT22;14583;43.604;1.364;2022-10-16T01:43:46;19.10;99.90
26408;DHT22;14583;43.604;1.364;2022-10-16T01:46:14;19.10;99.90
26408;DHT22;14583;43.604;1.364;2022-10-16T01:48:41;19.10;99.90
26408;DHT22;14583;43.604;1.364;2022-10-16T01:51:10;19.10;99.90
26408;DHT22;14583;43.604;1.364;2022-10-16T01:53:38;19.10;99.90
26408;DHT22;14583;43.604;1.364;2022-10-16T01:56:08;19.10;99.90
26408;DHT22;14583;43.604;1.364;2022-10-16T01:58:37;19.10;99.90
26408;DHT22;14583;43.604;1.364;2022-10-16T02:01:07;19.20;99.90
26408;DHT22;14583;43.604;1.364;2022-10-16T02:03:35;19.10;99.90
26408;DHT22;14583;43.604;1.364;2022-10-16T02:06:01;19.10;99.90
26408;DHT22;14583;43.604;1.364;2022-10-16T02:08:29;19.10;99.90
26408;DHT22;14583;43.604;1.364;2022-10-16T02:10:57;19.10;99.90
26408;DHT22;14583;43.604;1.364;2022-10-16T02:13:48;19.00;99.90
26408;DHT22;14583;43.604;1.364;2022-10-16T02:16:13;19.00;99.90
26408;DHT22;14583;43.604;1.364;2022-10-16T02:18:39;19.00;99.90
26408;DHT22;14583;43.604;1.364;2022-10-16T02:23:53;19.00;99.90
26408;DHT22;14583;43.604;1.364;2022-10-16T02:26:35;19.00;99.90
26408;DHT22;14583;43.604;1.364;2022-10-16T02:29:05;19.00;99.90
26408;DHT22;14583;43.604;1.364;2022-10-16T02:31:35;18.90;99.90
26408;DHT22;14583;43.604;1.364;2022-10-16T02:34:03;18.90;99.90
26408;DHT22;14583;43.604;1.364;2022-10-16T02:36:31;18.80;99.90
26408;DHT22;14583;43.604;1.364;2022-10-16T02:38:58;18.80;99.90
26408;DHT22;14583;43.604;1.364;2022-10-16T02:41:26;18.90;99.90
26408;DHT22;14583;43.604;1.364;2022-10-16T02:43:52;18.80;99.90
26408;DHT22;14583;43.604;1.364;2022-10-16T02:46:18;18.80;99.90
26408;DHT22;14583;43.604;1.364;2022-10-16T02:48:44;18.80;99.90
26408;DHT22;14583;43.604;1.364;2022-10-16T02:51:10;18.80;99.90
26408;DHT22;14583;43.604;1.364;2022-10-16T02:53:35;18.80;99.90
26408;DHT22;14583;43.604;1.364;2022-10-16T02:56:01;18.80;99.90
26408;DHT22;14583;43.604;1.364;2022-10-16T02:58:27;18.80;99.90
26408;DHT22;14583;43.604;1.364;2022-10-16T03:00:52;18.80;99.90
26408;DHT22;14583;43.604;1.364;2022-10-16T03:03:18;18.80;99.90
26408;DHT22;14583;43.604;1.364;2022-10-16T03:05:44;18.80;99.90
26408;DHT22;14583;43.604;1.364;2022-10-16T03:08:11;18.80;99.90
26408;DHT22;14583;43.604;1.364;2022-10-16T03:10:37;18.90;99.90
26408;DHT22;14583;43.604;1.364;2022-10-16T03:13:03;18.80;99.90
26408;DHT22;14583;43.604;1.364;2022-10-16T03:15:29;18.80;99.90
26408;DHT22;14583;43.604;1.364;2022-10-16T03:17:57;18.80;99.90
26408;DHT22;14583;43.604;1.364;2022-10-16T03:20:22;18.80;99.90
26408;DHT22;14583;43.604;1.364;2022-10-16T03:22:48;18.90;99.90
26408;DHT22;14583;43.604;1.364;2022-10-16T03:25:13;18.90;99.90
26408;DHT22;14583;43.604;1.364;2022-10-16T03:27:39;18.80;99.90
26408;DHT22;14583;43.604;1.364;2022-10-16T03:30:05;18.80;99.90
26408;DHT22;14583;43.604;1.364;2022-10-16T03:32:31;18.90;99.90
26408;DHT22;14583;43.604;1.364;2022-10-16T03:34:57;18.90;99.90
26408;DHT22;14583;43.604;1.364;2022-10-16T03:37:22;19.00;99.90
26408;DHT22;14583;43.604;1.364;2022-10-16T03:39:48;19.10;99.90
26408;DHT22;14583;43.604;1.364;2022-10-16T03:42:13;19.10;99.90
26408;DHT22;14583;43.604;1.364;2022-10-16T03:44:39;19.10;99.90
26408;DHT22;14583;43.604;1.364;2022-10-16T03:47:05;19.10;99.90
26408;DHT22;14583;43.604;1.364;2022-10-16T03:49:30;19.10;99.90
26408;DHT22;14583;43.604;1.364;2022-10-16T03:51:56;19.00;99.90
26408;DHT22;14583;43.604;1.364;2022-10-16T03:54:21;19.00;99.90
26408;DHT22;14583;43.604;1.364;2022-10-16T03:56:47;19.00;99.90
26408;DHT22;14583;43.604;1.364;2022-10-16T03:59:13;19.00;99.90
26408;DHT22;14583;43.604;1.364;2022-10-16T04:01:39;19.10;99.90
26408;DHT22;14583;43.604;1.364;2022-10-16T04:04:04;19.10;99.90
26408;DHT22;14583;43.604;1.364;2022-10-16T04:06:30;19.00;99.90
26408;DHT22;14583;43.604;1.364;2022-10-16T04:08:56;19.00;99.90
26408;DHT22;14583;43.604;1.364;2022-10-16T04:11:22;19.00;99.90
26408;DHT22;14583;43.604;1.364;2022-10-16T04:13:47;19.00;99.90
26408;DHT22;14583;43.604;1.364;2022-10-16T04:16:13;19.00;99.90
26408;DHT22;14583;43.604;1.364;2022-10-16T04:18:39;19.00;99.90
26408;DHT22;14583;43.604;1.364;2022-10-16T04:21:05;19.00;99.90
26408;DHT22;14583;43.604;1.364;2022-10-16T04:23:32;19.10;99.90
26408;DHT22;14583;43.604;1.364;2022-10-16T04:25:58;19.20;99.90
26408;DHT22;14583;43.604;1.364;2022-10-16T04:28:23;19.30;99.90
26408;DHT22;14583;43.604;1.364;2022-10-16T04:30:49;19.20;99.90
26408;DHT22;14583;43.604;1.364;2022-10-16T04:33:14;19.10;99.90
26408;DHT22;14583;43.604;1.364;2022-10-16T04:35:40;19.10;99.90
26408;DHT22;14583;43.604;1.364;2022-10-16T04:38:06;19.10;99.90
26408;DHT22;14583;43.604;1.364;2022-10-16T04:40:31;19.10;99.90
26408;DHT22;14583;43.604;1.364;2022-10-16T04:43:03;19.20;99.90
26408;DHT22;14583;43.604;1.364;2022-10-16T04:45:28;19.10;99.90
26408;DHT22;14583;43.604;1.364;2022-10-16T04:48:00;19.20;99.90
26408;DHT22;14583;43.604;1.364;2022-10-16T04:50:25;19.10;99.90
26408;DHT22;14583;43.604;1.364;2022-10-16T04:52:51;19.10;99.90
26408;DHT22;14583;43.604;1.364;2022-10-16T04:55:17;19.10;99.90
26408;DHT22;14583;43.604;1.364;2022-10-16T04:57:42;19.10;99.90
26408;DHT22;14583;43.604;1.364;2022-10-16T05:00:08;19.10;99.90
26408;DHT22;14583;43.604;1.364;2022-10-16T05:02:34;19.10;99.90
26408;DHT22;14583;43.604;1.364;2022-10-16T05:05:00;19.10;99.90
26408;DHT22;14583;43.604;1.364;2022-10-16T05:07:25;19.00;99.90
26408;DHT22;14583;43.604;1.364;2022-10-16T05:09:51;19.10;99.90
26408;DHT22;14583;43.604;1.364;2022-10-16T05:12:17;19.10;99.90
26408;DHT22;14583;43.604;1.364;2022-10-16T05:14:42;19.10;99.90
26408;DHT22;14583;43.604;1.364;2022-10-16T05:17:08;19.10;99.90
26408;DHT22;14583;43.604;1.364;2022-10-16T05:19:34;19.10;99.90
26408;DHT22;14583;43.604;1.364;2022-10-16T05:22:00;19.20;99.90
26408;DHT22;14583;43.604;1.364;2022-10-16T05:24:25;19.20;99.90
26408;DHT22;14583;43.604;1.364;2022-10-16T05:26:51;19.20;99.90
26408;DHT22;14583;43.604;1.364;2022-10-16T05:29:17;19.10;99.90
26408;DHT22;14583;43.604;1.364;2022-10-16T05:31:43;19.10;99.90
26408;DHT22;14583;43.604;1.364;2022-10-16T05:34:08;19.20;99.90
26408;DHT22;14583;43.604;1.364;2022-10-16T05:36:34;19.20;99.90
26408;DHT22;14583;43.604;1.364;2022-10-16T05:39:00;19.20;99.90
26408;DHT22;14583;43.604;1.364;2022-10-16T05:41:25;19.30;99.90
26408;DHT22;14583;43.604;1.364;2022-10-16T05:43:52;19.30;99.90
26408;DHT22;14583;43.604;1.364;2022-10-16T05:46:18;19.30;99.90
26408;DHT22;14583;43.604;1.364;2022-10-16T05:48:43;19.30;99.90
26408;DHT22;14583;43.604;1.364;2022-10-16T05:51:11;19.20;99.90
26408;DHT22;14583;43.604;1.364;2022-10-16T05:53:39;19.20;99.90
26408;DHT22;14583;43.604;1.364;2022-10-16T05:56:06;19.20;99.90
26408;DHT22;14583;43.604;1.364;2022-10-16T05:58:34;19.30;99.90
26408;DHT22;14583;43.604;1.364;2022-10-16T06:01:06;19.30;99.90
26408;DHT22;14583;43.604;1.364;2022-10-16T06:03:34;19.20;99.90
26408;DHT22;14583;43.604;1.364;2022-10-16T06:06:11;19.20;99.90
26408;DHT22;14583;43.604;1.364;2022-10-16T06:08:37;19.30;99.90
26408;DHT22;14583;43.604;1.364;2022-10-16T06:11:07;19.30;99.90
26408;DHT22;14583;43.604;1.364;2022-10-16T06:13:33;19.20;99.90
26408;DHT22;14583;43.604;1.364;2022-10-16T06:15:59;19.20;99.90
26408;DHT22;14583;43.604;1.364;2022-10-16T06:18:26;19.20;99.90
26408;DHT22;14583;43.604;1.364;2022-10-16T06:20:52;19.20;99.90
26408;DHT22;14583;43.604;1.364;2022-10-16T06:23:18;19.20;99.90
26408;DHT22;14583;43.604;1.364;2022-10-16T06:25:43;19.30;99.90
26408;DHT22;14583;43.604;1.364;2022-10-16T06:28:09;19.30;99.90
26408;DHT22;14583;43.604;1.364;2022-10-16T06:30:35;19.30;99.90
26408;DHT22;14583;43.604;1.364;2022-10-16T06:33:00;19.40;99.90
26408;DHT22;14583;43.604;1.364;2022-10-16T06:35:26;19.40;99.90
26408;DHT22;14583;43.604;1.364;2022-10-16T06:37:53;19.50;99.90
26408;DHT22;14583;43.604;1.364;2022-10-16T06:40:18;19.40;99.90
26408;DHT22;14583;43.604;1.364;2022-10-16T06:42:44;19.40;99.90
26408;DHT22;14583;43.604;1.364;2022-10-16T06:45:10;19.40;99.90
26408;DHT22;14583;43.604;1.364;2022-10-16T06:47:36;19.50;99.90
26408;DHT22;14583;43.604;1.364;2022-10-16T06:50:03;19.40;99.90
26408;DHT22;14583;43.604;1.364;2022-10-16T06:52:29;19.40;99.90
26408;DHT22;14583;43.604;1.364;2022-10-16T06:54:55;19.40;99.90
26408;DHT22;14583;43.604;1.364;2022-10-16T06:57:21;19.40;99.90
26408;DHT22;14583;43.604;1.364;2022-10-16T06:59:47;19.50;99.90
26408;DHT22;14583;43.604;1.364;2022-10-16T07:02:12;19.50;99.90
26408;DHT22;14583;43.604;1.364;2022-10-16T07:04:38;19.50;99.90
26408;DHT22;14583;43.604;1.364;2022-10-16T07:07:03;19.60;99.90
26408;DHT22;14583;43.604;1.364;2022-10-16T07:09:29;19.60;99.90
26408;DHT22;14583;43.604;1.364;2022-10-16T07:11:55;19.60;99.90
26408;DHT22;14583;43.604;1.364;2022-10-16T07:14:21;19.60;99.90
26408;DHT22;14583;43.604;1.364;2022-10-16T07:16:47;19.60;99.90
26408;DHT22;14583;43.604;1.364;2022-10-16T07:19:14;19.60;99.90
26408;DHT22;14583;43.604;1.364;2022-10-16T07:21:42;19.70;99.90
26408;DHT22;14583;43.604;1.364;2022-10-16T07:24:12;19.70;99.90
26408;DHT22;14583;43.604;1.364;2022-10-16T07:26:39;19.70;99.90
26408;DHT22;14583;43.604;1.364;2022-10-16T07:29:16;19.80;99.90
26408;DHT22;14583;43.604;1.364;2022-10-16T07:31:43;19.70;99.90
26408;DHT22;14583;43.604;1.364;2022-10-16T07:34:13;19.80;99.90
26408;DHT22;14583;43.604;1.364;2022-10-16T07:36:39;19.80;99.90
26408;DHT22;14583;43.604;1.364;2022-10-16T07:39:05;19.80;99.90
26408;DHT22;14583;43.604;1.364;2022-10-16T07:41:31;19.80;99.90
26408;DHT22;14583;43.604;1.364;2022-10-16T07:43:58;19.80;99.90
26408;DHT22;14583;43.604;1.364;2022-10-16T07:46:28;19.80;99.90
26408;DHT22;14583;43.604;1.364;2022-10-16T07:48:53;19.90;99.90
26408;DHT22;14583;43.604;1.364;2022-10-16T07:51:22;20.00;99.90
26408;DHT22;14583;43.604;1.364;2022-10-16T07:53:48;20.00;99.90
26408;DHT22;14583;43.604;1.364;2022-10-16T07:56:15;20.10;99.90
26408;DHT22;14583;43.604;1.364;2022-10-16T07:58:41;20.10;99.90
26408;DHT22;14583;43.604;1.364;2022-10-16T08:01:09;20.10;99.90
26408;DHT22;14583;43.604;1.364;2022-10-16T08:03:36;20.20;99.90
26408;DHT22;14583;43.604;1.364;2022-10-16T08:06:02;20.20;99.90
26408;DHT22;14583;43.604;1.364;2022-10-16T08:08:28;20.20;99.90
26408;DHT22;14583;43.604;1.364;2022-10-16T08:10:54;20.20;99.90
26408;DHT22;14583;43.604;1.364;2022-10-16T08:13:20;20.30;99.90
26408;DHT22;14583;43.604;1.364;2022-10-16T08:15:46;20.30;99.90
26408;DHT22;14583;43.604;1.364;2022-10-16T08:18:14;20.40;99.90
26408;DHT22;14583;43.604;1.364;2022-10-16T08:20:41;20.50;99.90
26408;DHT22;14583;43.604;1.364;2022-10-16T08:23:08;20.50;99.90
26408;DHT22;14583;43.604;1.364;2022-10-16T08:25:35;20.50;99.90
26408;DHT22;14583;43.604;1.364;2022-10-16T08:28:05;20.50;99.90
26408;DHT22;14583;43.604;1.364;2022-10-16T08:30:32;20.50;99.90
26408;DHT22;14583;43.604;1.364;2022-10-16T08:32:57;20.60;99.90
26408;DHT22;14583;43.604;1.364;2022-10-16T08:35:23;20.60;99.90
26408;DHT22;14583;43.604;1.364;2022-10-16T08:37:49;20.60;99.90
26408;DHT22;14583;43.604;1.364;2022-10-16T08:45:26;20.60;99.90
26408;DHT22;14583;43.604;1.364;2022-10-16T08:48:48;20.70;99.90
26408;DHT22;14583;43.604;1.364;2022-10-16T08:51:09;20.70;99.90
26408;DHT22;14583;43.604;1.364;2022-10-16T08:53:44;20.90;99.90
26408;DHT22;14583;43.604;1.364;2022-10-16T08:56:11;21.00;99.90
26408;DHT22;14583;43.604;1.364;2022-10-16T08:58:37;21.10;99.90
26408;DHT22;14583;43.604;1.364;2022-10-16T09:01:16;21.30;99.90
26408;DHT22;14583;43.604;1.364;2022-10-16T09:06:35;21.30;99.90
26408;DHT22;14583;43.604;1.364;2022-10-16T09:11:52;21.40;99.90
26408;DHT22;14583;43.604;1.364;2022-10-16T09:14:37;21.40;99.90
26408;DHT22;14583;43.604;1.364;2022-10-16T09:22:31;21.70;99.90
26408;DHT22;14583;43.604;1.364;2022-10-16T09:25:00;21.70;99.90
26408;DHT22;14583;43.604;1.364;2022-10-16T09:27:26;21.80;99.90
26408;DHT22;14583;43.604;1.364;2022-10-16T09:29:52;21.80;99.90
26408;DHT22;14583;43.604;1.364;2022-10-16T09:32:20;21.90;99.90
26408;DHT22;14583;43.604;1.364;2022-10-16T09:34:52;21.90;99.90
26408;DHT22;14583;43.604;1.364;2022-10-16T09:37:21;21.90;99.90
26408;DHT22;14583;43.604;1.364;2022-10-16T09:39:52;22.00;99.90
26408;DHT22;14583;43.604;1.364;2022-10-16T09:42:19;22.10;99.90
26408;DHT22;14583;43.604;1.364;2022-10-16T09:44:52;22.20;99.90
26408;DHT22;14583;43.604;1.364;2022-10-16T09:47:28;22.20;99.90
26408;DHT22;14583;43.604;1.364;2022-10-16T09:50:04;22.30;99.90
26408;DHT22;14583;43.604;1.364;2022-10-16T09:52:32;22.40;99.90
26408;DHT22;14583;43.604;1.364;2022-10-16T09:54:58;22.50;99.90
26408;DHT22;14583;43.604;1.364;2022-10-16T09:57:24;22.50;99.90
26408;DHT22;14583;43.604;1.364;2022-10-16T09:59:55;22.50;99.90
26408;DHT22;14583;43.604;1.364;2022-10-16T10:02:37;22.60;99.90
26408;DHT22;14583;43.604;1.364;2022-10-16T10:05:05;22.50;99.90
26408;DHT22;14583;43.604;1.364;2022-10-16T10:07:43;22.60;99.90
26408;DHT22;14583;43.604;1.364;2022-10-16T10:10:20;22.60;99.90
26408;DHT22;14583;43.604;1.364;2022-10-16T10:12:46;22.70;99.90
26408;DHT22;14583;43.604;1.364;2022-10-16T10:15:13;22.70;99.90
26408;DHT22;14583;43.604;1.364;2022-10-16T10:17:50;22.80;99.90
26408;DHT22;14583;43.604;1.364;2022-10-16T10:22:48;22.90;99.90
26408;DHT22;14583;43.604;1.364;2022-10-16T10:33:17;23.20;99.90
26408;DHT22;14583;43.604;1.364;2022-10-16T10:35:45;23.30;99.90
26408;DHT22;14583;43.604;1.364;2022-10-16T10:46:51;23.30;99.90
26408;DHT22;14583;43.604;1.364;2022-10-16T10:49:42;23.40;99.90
26408;DHT22;14583;43.604;1.364;2022-10-16T10:52:34;23.40;99.90
26408;DHT22;14583;43.604;1.364;2022-10-16T11:01:01;23.50;99.90
26408;DHT22;14583;43.604;1.364;2022-10-16T11:03:59;23.60;99.90
26408;DHT22;14583;43.604;1.364;2022-10-16T11:06:44;23.80;99.90
26408;DHT22;14583;43.604;1.364;2022-10-16T11:12:11;23.80;99.90
26408;DHT22;14583;43.604;1.364;2022-10-16T11:14:46;23.80;99.90
26408;DHT22;14583;43.604;1.364;2022-10-16T11:17:30;23.90;99.90
26408;DHT22;14583;43.604;1.364;2022-10-16T11:20:02;24.00;99.90
26408;DHT22;14583;43.604;1.364;2022-10-16T11:22:44;24.00;99.90
26408;DHT22;14583;43.604;1.364;2022-10-16T11:25:23;24.00;99.90
26408;DHT22;14583;43.604;1.364;2022-10-16T11:30:30;24.00;99.90
26408;DHT22;14583;43.604;1.364;2022-10-16T11:35:48;24.30;99.90
26408;DHT22;14583;43.604;1.364;2022-10-16T11:46:51;24.50;99.90
26408;DHT22;14583;43.604;1.364;2022-10-16T11:49:23;24.60;99.90
26408;DHT22;14583;43.604;1.364;2022-10-16T11:52:13;24.60;99.90
26408;DHT22;14583;43.604;1.364;2022-10-16T11:55:02;24.70;99.90
26408;DHT22;14583;43.604;1.364;2022-10-16T11:57:35;24.60;99.90
26408;DHT22;14583;43.604;1.364;2022-10-16T12:00:22;24.70;99.90
26408;DHT22;14583;43.604;1.364;2022-10-16T12:05:58;24.80;99.90
26408;DHT22;14583;43.604;1.364;2022-10-16T12:08:26;25.00;99.90
26408;DHT22;14583;43.604;1.364;2022-10-16T12:10:52;25.20;99.90
26408;DHT22;14583;43.604;1.364;2022-10-16T12:13:37;25.20;99.90
26408;DHT22;14583;43.604;1.364;2022-10-16T12:18:30;25.00;99.90
26408;DHT22;14583;43.604;1.364;2022-10-16T12:20:56;25.00;99.90
26408;DHT22;14583;43.604;1.364;2022-10-16T12:23:30;25.00;99.90
26408;DHT22;14583;43.604;1.364;2022-10-16T12:25:58;25.10;99.90
26408;DHT22;14583;43.604;1.364;2022-10-16T12:28:32;25.10;99.90
26408;DHT22;14583;43.604;1.364;2022-10-16T12:31:04;25.10;99.90
26408;DHT22;14583;43.604;1.364;2022-10-16T12:33:35;25.10;99.90
26408;DHT22;14583;43.604;1.364;2022-10-16T12:36:05;25.20;99.90
26408;DHT22;14583;43.604;1.364;2022-10-16T12:38:52;25.30;99.90
26408;DHT22;14583;43.604;1.364;2022-10-16T12:41:36;25.40;99.90
26408;DHT22;14583;43.604;1.364;2022-10-16T12:44:05;25.50;99.90
26408;DHT22;14583;43.604;1.364;2022-10-16T12:51:40;25.40;99.90
26408;DHT22;14583;43.604;1.364;2022-10-16T12:54:18;25.20;99.90
26408;DHT22;14583;43.604;1.364;2022-10-16T12:59:44;25.20;99.90
26408;DHT22;14583;43.604;1.364;2022-10-16T13:08:28;25.50;99.90
26408;DHT22;14583;43.604;1.364;2022-10-16T13:16:49;25.40;99.90
26408;DHT22;14583;43.604;1.364;2022-10-16T13:28:08;25.40;99.90
26408;DHT22;14583;43.604;1.364;2022-10-16T13:30:42;25.20;99.90
26408;DHT22;14583;43.604;1.364;2022-10-16T13:36:00;25.50;99.90
26408;DHT22;14583;43.604;1.364;2022-10-16T13:38:36;25.60;99.90
26408;DHT22;14583;43.604;1.364;2022-10-16T13:41:04;25.60;99.90
26408;DHT22;14583;43.604;1.364;2022-10-16T13:46:10;25.70;99.90
26408;DHT22;14583;43.604;1.364;2022-10-16T13:48:36;25.70;99.90
26408;DHT22;14583;43.604;1.364;2022-10-16T13:51:17;25.70;99.90
26408;DHT22;14583;43.604;1.364;2022-10-16T13:53:44;25.70;99.90
26408;DHT22;14583;43.604;1.364;2022-10-16T13:56:12;25.60;99.90
26408;DHT22;14583;43.604;1.364;2022-10-16T13:58:38;25.50;99.90
26408;DHT22;14583;43.604;1.364;2022-10-16T14:01:19;25.50;99.90
26408;DHT22;14583;43.604;1.364;2022-10-16T14:03:46;25.70;99.90
26408;DHT22;14583;43.604;1.364;2022-10-16T14:06:14;25.90;99.90
26408;DHT22;14583;43.604;1.364;2022-10-16T14:11:48;26.10;99.90
26408;DHT22;14583;43.604;1.364;2022-10-16T14:14:17;26.10;99.90
26408;DHT22;14583;43.604;1.364;2022-10-16T14:16:44;26.20;99.90
26408;DHT22;14583;43.604;1.364;2022-10-16T14:19:29;26.20;99.90
26408;DHT22;14583;43.604;1.364;2022-10-16T14:21:56;26.20;99.90
26408;DHT22;14583;43.604;1.364;2022-10-16T14:24:33;26.30;99.90
26408;DHT22;14583;43.604;1.364;2022-10-16T14:26:59;26.30;99.90
26408;DHT22;14583;43.604;1.364;2022-10-16T14:29:27;26.10;99.90
26408;DHT22;14583;43.604;1.364;2022-10-16T14:32:01;25.90;99.90
26408;DHT22;14583;43.604;1.364;2022-10-16T14:36:56;26.00;99.90
26408;DHT22;14583;43.604;1.364;2022-10-16T14:39:22;26.00;99.90
26408;DHT22;14583;43.604;1.364;2022-10-16T14:41:50;25.80;99.90
26408;DHT22;14583;43.604;1.364;2022-10-16T14:44:21;25.60;99.90
26408;DHT22;14583;43.604;1.364;2022-10-16T14:46:48;25.40;99.90
26408;DHT22;14583;43.604;1.364;2022-10-16T14:49:19;25.30;99.90
26408;DHT22;14583;43.604;1.364;2022-10-16T14:51:46;25.20;99.90
26408;DHT22;14583;43.604;1.364;2022-10-16T14:54:13;25.10;99.90
26408;DHT22;14583;43.604;1.364;2022-10-16T14:56:54;25.10;99.90
26408;DHT22;14583;43.604;1.364;2022-10-16T15:04:51;25.80;99.90
26408;DHT22;14583;43.604;1.364;2022-10-16T15:07:17;26.60;99.90
26408;DHT22;14583;43.604;1.364;2022-10-16T15:09:42;27.20;99.90
26408;DHT22;14583;43.604;1.364;2022-10-16T15:12:08;29.10;99.90
26408;DHT22;14583;43.604;1.364;2022-10-16T15:14:34;30.10;99.90
26408;DHT22;14583;43.604;1.364;2022-10-16T15:16:59;30.20;99.90
26408;DHT22;14583;43.604;1.364;2022-10-16T15:19:25;31.60;99.90
26408;DHT22;14583;43.604;1.364;2022-10-16T15:21:50;30.00;99.90
26408;DHT22;14583;43.604;1.364;2022-10-16T15:24:17;29.00;99.90
26408;DHT22;14583;43.604;1.364;2022-10-16T15:26:43;29.30;99.90
26408;DHT22;14583;43.604;1.364;2022-10-16T15:29:11;31.20;99.90
26408;DHT22;14583;43.604;1.364;2022-10-16T15:31:37;32.90;98.90
26408;DHT22;14583;43.604;1.364;2022-10-16T15:34:04;34.60;96.80
26408;DHT22;14583;43.604;1.364;2022-10-16T15:36:35;36.30;94.80
26408;DHT22;14583;43.604;1.364;2022-10-16T15:39:11;37.50;92.30
26408;DHT22;14583;43.604;1.364;2022-10-16T15:41:37;38.90;87.80
26408;DHT22;14583;43.604;1.364;2022-10-16T15:44:03;39.40;83.60
26408;DHT22;14583;43.604;1.364;2022-10-16T15:46:29;39.60;81.40
26408;DHT22;14583;43.604;1.364;2022-10-16T15:48:57;39.10;79.90
26408;DHT22;14583;43.604;1.364;2022-10-16T15:51:24;37.70;82.80
26408;DHT22;14583;43.604;1.364;2022-10-16T15:53:50;38.20;81.20
26408;DHT22;14583;43.604;1.364;2022-10-16T15:56:17;37.80;81.20
26408;DHT22;14583;43.604;1.364;2022-10-16T15:58:43;38.70;78.90
26408;DHT22;14583;43.604;1.364;2022-10-16T16:01:09;38.30;79.40
26408;DHT22;14583;43.604;1.364;2022-10-16T16:03:38;36.30;82.20
26408;DHT22;14583;43.604;1.364;2022-10-16T16:06:10;33.50;86.60
26408;DHT22;14583;43.604;1.364;2022-10-16T16:08:37;31.70;90.80
26408;DHT22;14583;43.604;1.364;2022-10-16T16:11:08;30.60;92.10
26408;DHT22;14583;43.604;1.364;2022-10-16T16:13:35;29.20;94.30
26408;DHT22;14583;43.604;1.364;2022-10-16T16:16:05;29.60;94.80
26408;DHT22;14583;43.604;1.364;2022-10-16T16:18:31;28.60;95.60
26408;DHT22;14583;43.604;1.364;2022-10-16T16:20:56;28.00;96.90
26408;DHT22;14583;43.604;1.364;2022-10-16T16:23:22;26.90;98.70
26408;DHT22;14583;43.604;1.364;2022-10-16T16:28:33;26.10;99.90
26408;DHT22;14583;43.604;1.364;2022-10-16T16:30:58;26.00;99.90
26408;DHT22;14583;43.604;1.364;2022-10-16T16:33:24;25.70;99.90
26408;DHT22;14583;43.604;1.364;2022-10-16T16:35:50;25.50;99.90
26408;DHT22;14583;43.604;1.364;2022-10-16T16:38:15;25.30;99.90
26408;DHT22;14583;43.604;1.364;2022-10-16T16:40:41;25.10;99.90
26408;DHT22;14583;43.604;1.364;2022-10-16T16:43:07;24.70;99.90
26408;DHT22;14583;43.604;1.364;2022-10-16T16:45:35;24.40;99.90
26408;DHT22;14583;43.604;1.364;2022-10-16T16:48:01;24.30;99.90
26408;DHT22;14583;43.604;1.364;2022-10-16T16:50:27;24.20;99.90
26408;DHT22;14583;43.604;1.364;2022-10-16T16:52:52;24.10;99.90
26408;DHT22;14583;43.604;1.364;2022-10-16T16:55:19;24.00;99.90
26408;DHT22;14583;43.604;1.364;2022-10-16T16:57:47;24.00;99.90
26408;DHT22;14583;43.604;1.364;2022-10-16T17:00:13;24.00;99.90
26408;DHT22;14583;43.604;1.364;2022-10-16T17:02:39;24.10;99.90
26408;DHT22;14583;43.604;1.364;2022-10-16T17:05:08;23.80;99.90
26408;DHT22;14583;43.604;1.364;2022-10-16T17:07:34;23.60;99.90
26408;DHT22;14583;43.604;1.364;2022-10-16T17:10:00;23.50;99.90
26408;DHT22;14583;43.604;1.364;2022-10-16T17:12:26;23.50;99.90
26408;DHT22;14583;43.604;1.364;2022-10-16T17:14:52;23.50;99.90
26408;DHT22;14583;43.604;1.364;2022-10-16T17:17:17;23.40;99.90
26408;DHT22;14583;43.604;1.364;2022-10-16T17:19:43;23.40;99.90
26408;DHT22;14583;43.604;1.364;2022-10-16T17:22:08;23.20;99.90
26408;DHT22;14583;43.604;1.364;2022-10-16T17:24:34;23.20;99.90
26408;DHT22;14583;43.604;1.364;2022-10-16T17:27:00;23.20;99.90
26408;DHT22;14583;43.604;1.364;2022-10-16T17:29:25;23.20;99.90
26408;DHT22;14583;43.604;1.364;2022-10-16T17:31:51;23.10;99.90
26408;DHT22;14583;43.604;1.364;2022-10-16T17:34:17;23.10;99.90
26408;DHT22;14583;43.604;1.364;2022-10-16T17:36:42;23.00;99.90
26408;DHT22;14583;43.604;1.364;2022-10-16T17:39:12;22.80;99.90
26408;DHT22;14583;43.604;1.364;2022-10-16T17:41:38;22.80;99.90
26408;DHT22;14583;43.604;1.364;2022-10-16T17:44:05;22.80;99.90
26408;DHT22;14583;43.604;1.364;2022-10-16T17:46:31;22.80;99.90